This is the latest recevied weather packets stored in our database for station/object HP1PAR-14. If no packets are shown the sender has not sent any weather packets the latest 10 day(s).
| Time | Temp. | Humidity | Pressure | Rain* | Wind** | Luminosity | Snow |
|---|---|---|---|---|---|---|---|
| 1788113380 | 23.33° C | 83% | 1012.3 hPa | 0 mm | - | - | - |
| 1788112184 | 23.33° C | 81% | 1012.6 hPa | 0 mm | - | - | - |
| 1788110384 | 24.44° C | 75% | 1012.9 hPa | 0 mm | - | - | - |
| 1788108583 | 24.44° C | 73% | 1013.1 hPa | 0 mm | - | - | - |
| 1788106783 | 23.89° C | 76% | 1013.1 hPa | 0 mm | - | - | - |
| 1788104982 | 23.33° C | 80% | 1012.9 hPa | 0 mm | - | - | - |
| 1788103182 | 22.78° C | 83% | 1012.6 hPa | 0 mm | - | - | - |
| 1788101381 | 22.22° C | 86% | 1012.4 hPa | 0 mm | - | - | - |
| 1788101238 | 22.22° C | 86% | 1012.4 hPa | 0 mm | - | - | - |
| 1788099896 | 21.11° C | 90% | 1012.3 hPa | 0 mm | - | - | - |
| 1788099194 | 21.11° C | 92% | 1012.3 hPa | 0 mm | - | - | - |
| 1788097394 | 20.56° C | 93% | 1012.5 hPa | 0 mm | - | - | - |
| 1788095593 | 20.56° C | 93% | 1012.6 hPa | 0 mm | - | - | - |
| 1788093793 | 20° C | 95% | 1012.2 hPa | 0 mm | - | - | - |
| 1788091992 | 19.44° C | 99% | 1011.8 hPa | 0 mm | - | - | - |
| 1788090192 | 19.44° C | 99% | 1011.5 hPa | 0 mm | - | - | - |
| 1788088391 | 18.89° C | 99% | 1011.2 hPa | 0 mm | - | - | - |
| 1788086591 | 18.89° C | 99% | 1010.9 hPa | 0 mm | - | - | - |
| 1788084790 | 19.44° C | 99% | 1010.6 hPa | 0.25 mm | - | - | - |
| 1788082990 | 19.44° C | 98% | 1010.6 hPa | 0.25 mm | - | - | - |
| 1788081189 | 20° C | 98% | 1010.7 hPa | 0 mm | - | - | - |
| 1788079389 | 20° C | 99% | 1010.9 hPa | 0 mm | - | - | - |
| 1788077588 | 20° C | 99% | 1011.1 hPa | 0 mm | - | - | - |
| 1788075788 | 20° C | 99% | 1011 hPa | 0 mm | - | - | - |
| 1788073987 | 20° C | 98% | 1011 hPa | 0 mm | - | - | - |
* Rain latest hour (hover to see other rain measurements)
** Current wind speed in m/s (hover to see current wind gust speed)